Time;durP1;ratioP1;P1;durP2;ratioP2;P2;SDS_P1;SDS_P2;PMS_P1;PMS_P2;Temp;Humidity;BMP_temperature;BMP_pressure;BME280_temperature;BME280_humidity;BME280_pressure;Samples;Min_cycle;Max_cycle;Signal;HPM_P1;HPM_P2
2022/04/16 00:00:13;;;;;;;2.80;2.60;;;10.80;99.90;;;;;;5140863;27;20676;-81
2022/04/16 00:02:40;;;;;;;1.67;1.57;;;11.20;99.90;;;;;;5138011;27;20633;-81
2022/04/16 00:05:08;;;;;;;2.30;2.00;;;10.80;99.90;;;;;;5139120;27;20626;-81
2022/04/16 00:07:36;;;;;;;2.17;2.07;;;11.10;99.90;;;;;;5143378;27;20616;-80
2022/04/16 00:10:04;;;;;;;1.80;1.70;;;11.20;99.90;;;;;;5142256;27;20727;-82
2022/04/16 00:12:31;;;;;;;2.30;1.73;;;10.80;99.90;;;;;;5142928;27;20728;-80
2022/04/16 00:14:57;;;;;;;1.97;1.87;;;10.70;99.90;;;;;;5143194;27;20617;-81
2022/04/16 00:17:24;;;;;;;2.00;1.90;;;10.30;99.90;;;;;;5140202;27;20625;-81
2022/04/16 00:19:51;;;;;;;1.73;1.63;;;10.50;99.90;;;;;;5146302;27;20645;-80
2022/04/16 00:22:18;;;;;;;1.80;1.70;;;10.10;99.90;;;;;;5145691;27;20629;-82
2022/04/16 00:24:50;;;;;;;1.80;1.70;;;10.80;99.90;;;;;;5146295;27;20617;-81
2022/04/16 00:27:17;;;;;;;1.90;1.80;;;10.40;99.90;;;;;;5141961;27;20664;-81
2022/04/16 00:29:44;;;;;;;1.87;1.77;;;10.50;99.90;;;;;;5145496;27;20660;-82
2022/04/16 00:32:10;;;;;;;2.10;1.90;;;10.40;99.90;;;;;;5149345;27;20645;-82
2022/04/16 00:34:38;;;;;;;2.33;1.90;;;10.60;99.90;;;;;;5142281;27;20668;-82
2022/04/16 00:37:05;;;;;;;1.77;1.67;;;10.70;99.90;;;;;;5144779;27;20698;-81
2022/04/16 00:39:32;;;;;;;2.00;1.90;;;10.80;99.90;;;;;;5145419;27;20649;-82
2022/04/16 00:42:01;;;;;;;2.10;1.93;;;10.40;99.90;;;;;;5145289;27;20626;-82
2022/04/16 00:44:28;;;;;;;2.47;2.33;;;10.40;99.90;;;;;;5142240;27;21146;-82
2022/04/16 00:46:54;;;;;;;2.53;2.33;;;10.60;99.90;;;;;;5143574;27;20629;-81
2022/04/16 00:49:21;;;;;;;2.37;2.17;;;10.50;99.90;;;;;;5142566;27;20621;-81
2022/04/16 00:51:50;;;;;;;2.80;2.60;;;10.40;99.90;;;;;;5140004;27;20613;-81
2022/04/16 00:54:18;;;;;;;2.53;2.33;;;10.20;99.90;;;;;;5140019;27;20673;-81
2022/04/16 00:56:47;;;;;;;2.37;2.27;;;10.50;99.90;;;;;;5142683;27;20625;-81
2022/04/16 00:59:15;;;;;;;1.90;1.80;;;10.50;99.90;;;;;;5141713;27;21262;-81
2022/04/16 01:01:41;;;;;;;2.70;2.50;;;10.50;99.90;;;;;;5146845;27;21170;-81
2022/04/16 01:04:09;;;;;;;1.80;1.70;;;10.40;99.90;;;;;;5140246;27;21171;-80
2022/04/16 01:06:37;;;;;;;1.80;1.70;;;10.30;99.90;;;;;;5142265;27;20632;-81
2022/04/16 01:09:03;;;;;;;2.47;2.27;;;9.80;99.90;;;;;;5139632;27;20679;-80
2022/04/16 01:11:32;;;;;;;2.67;2.47;;;9.90;99.90;;;;;;5125071;27;20654;-82
2022/04/16 01:14:00;;;;;;;2.67;2.47;;;10.10;99.90;;;;;;5135940;27;20654;-79
2022/04/16 01:16:30;;;;;;;2.63;2.43;;;10.10;99.90;;;;;;5141339;27;20645;-81
2022/04/16 01:18:57;;;;;;;1.67;1.57;;;10.20;99.90;;;;;;5142253;27;20677;-81
2022/04/16 01:21:23;;;;;;;2.17;2.07;;;10.00;99.90;;;;;;5143198;27;20668;-80
2022/04/16 01:23:52;;;;;;;2.07;1.97;;;9.90;99.90;;;;;;5136563;27;20623;-81
2022/04/16 01:26:19;;;;;;;2.10;2.00;;;10.20;99.90;;;;;;5139304;27;20633;-81
2022/04/16 01:28:46;;;;;;;2.63;2.43;;;10.10;99.90;;;;;;5139086;27;21160;-81
2022/04/16 01:31:13;;;;;;;2.90;2.70;;;10.20;99.90;;;;;;5143982;27;20657;-80
2022/04/16 01:33:39;;;;;;;2.10;2.00;;;10.20;99.90;;;;;;5144138;27;21192;-81
2022/04/16 01:36:06;;;;;;;2.30;2.20;;;10.30;99.90;;;;;;5136854;27;20981;-80
2022/04/16 01:38:33;;;;;;;2.43;2.23;;;9.80;99.90;;;;;;5137601;27;20629;-80
2022/04/16 01:41:01;;;;;;;3.00;2.80;;;10.20;99.90;;;;;;5140370;27;21115;-80
2022/04/16 01:43:29;;;;;;;2.87;2.67;;;9.90;99.90;;;;;;5145783;27;20621;-79
2022/04/16 01:45:56;;;;;;;3.00;2.80;;;10.20;99.90;;;;;;5139540;27;20665;-82
2022/04/16 01:48:27;;;;;;;2.37;2.27;;;10.30;99.90;;;;;;5142779;27;21190;-80
2022/04/16 01:50:53;;;;;;;2.10;2.00;;;10.10;99.90;;;;;;5138671;27;20637;-82
2022/04/16 01:53:20;;;;;;;2.13;2.03;;;9.80;99.90;;;;;;5140750;27;21272;-80
2022/04/16 01:55:47;;;;;;;2.70;2.50;;;9.90;99.90;;;;;;5141646;27;20626;-80
2022/04/16 01:58:15;;;;;;;2.23;2.13;;;10.00;99.90;;;;;;5143738;27;20614;-80
2022/04/16 02:00:42;;;;;;;2.40;2.30;;;10.00;99.90;;;;;;5141421;27;20701;-80
2022/04/16 02:03:10;;;;;;;2.00;1.90;;;9.50;99.90;;;;;;5140977;27;20621;-80
2022/04/16 02:05:37;;;;;;;1.80;1.70;;;9.80;99.90;;;;;;5139596;27;20992;-80
2022/04/16 02:08:04;;;;;;;2.20;2.10;;;9.50;99.90;;;;;;5136787;27;20629;-80
2022/04/16 02:10:31;;;;;;;2.60;2.40;;;9.70;99.90;;;;;;5140585;27;20742;-80
2022/04/16 02:12:58;;;;;;;2.20;2.10;;;9.40;99.90;;;;;;5134945;27;20663;-79
2022/04/16 02:15:26;;;;;;;2.03;1.93;;;9.80;99.90;;;;;;5141377;27;20661;-81
2022/04/16 02:17:56;;;;;;;2.10;2.00;;;9.60;99.90;;;;;;5139094;27;20630;-81
2022/04/16 02:20:23;;;;;;;2.67;2.47;;;9.70;99.90;;;;;;5142518;27;21333;-81
2022/04/16 02:22:52;;;;;;;2.67;2.47;;;9.30;99.90;;;;;;5137092;27;20997;-81
2022/04/16 02:25:19;;;;;;;3.00;2.80;;;9.00;99.90;;;;;;5142130;27;21014;-80
2022/04/16 02:27:47;;;;;;;2.90;2.70;;;9.10;99.90;;;;;;5142087;27;21074;-81
2022/04/16 02:30:16;;;;;;;2.23;2.13;;;8.90;99.90;;;;;;5140888;27;21523;-81
2022/04/16 02:32:46;;;;;;;2.87;2.67;;;9.10;99.90;;;;;;5144217;27;20712;-81
2022/04/16 02:35:14;;;;;;;2.60;2.50;;;9.00;99.90;;;;;;5142829;27;20746;-81
2022/04/16 02:37:41;;;;;;;2.73;2.53;;;9.10;99.90;;;;;;5139384;27;20634;-81
2022/04/16 02:40:09;;;;;;;2.40;2.27;;;8.70;99.90;;;;;;5141230;27;20646;-81
2022/04/16 02:42:36;;;;;;;2.53;2.43;;;9.00;99.90;;;;;;5140198;27;20998;-80
2022/04/16 02:47:50;;;;;;;4.43;2.50;;;8.80;99.90;;;;;;5138059;27;20635;-81
2022/04/16 02:50:17;;;;;;;3.27;2.27;;;8.50;99.90;;;;;;5138457;27;20658;-81
2022/04/16 02:52:46;;;;;;;3.27;2.60;;;8.80;99.90;;;;;;5137945;27;20634;-80
2022/04/16 02:55:15;;;;;;;2.37;2.27;;;8.90;99.90;;;;;;5143924;27;21203;-80
2022/04/16 02:57:42;;;;;;;3.10;2.90;;;8.70;99.90;;;;;;5139267;27;21110;-80
2022/04/16 03:00:10;;;;;;;2.87;2.67;;;8.30;99.90;;;;;;5140258;27;20676;-80
2022/04/16 03:02:37;;;;;;;2.40;2.20;;;8.80;99.90;;;;;;5137401;27;20732;-80
2022/04/16 03:05:08;;;;;;;2.40;2.30;;;8.30;99.90;;;;;;5142056;27;20622;-80
2022/04/16 03:07:35;;;;;;;2.33;2.23;;;8.50;99.90;;;;;;5138528;27;21058;-80
2022/04/16 03:10:03;;;;;;;2.37;2.27;;;8.40;99.90;;;;;;5135582;27;21235;-80
2022/04/16 03:12:40;;;;;;;2.80;2.60;;;8.30;99.90;;;;;;5138571;27;20609;-81
2022/04/16 03:17:52;;;;;;;2.63;2.43;;;8.40;99.90;;;;;;5136951;27;20585;-81
2022/04/16 03:20:20;;;;;;;2.70;2.53;;;8.30;99.90;;;;;;5143211;27;20657;-80
2022/04/16 03:22:47;;;;;;;3.13;2.93;;;8.30;99.90;;;;;;5136793;27;20617;-80
2022/04/16 03:25:14;;;;;;;2.77;2.57;;;8.50;99.90;;;;;;5138676;27;20630;-80
2022/04/16 03:27:40;;;;;;;3.73;2.80;;;7.90;99.90;;;;;;5141264;27;20633;-80
2022/04/16 03:30:09;;;;;;;2.43;2.33;;;8.10;99.90;;;;;;5139967;27;20648;-80
2022/04/16 03:32:38;;;;;;;3.10;2.93;;;8.30;99.90;;;;;;5140020;27;20641;-80
2022/04/16 03:35:06;;;;;;;2.20;2.00;;;7.90;99.90;;;;;;5138909;27;20665;-80
2022/04/16 03:37:34;;;;;;;2.57;2.47;;;8.00;99.90;;;;;;5141563;27;20648;-80
2022/04/16 03:40:01;;;;;;;3.03;2.80;;;8.10;99.90;;;;;;5143940;27;20634;-80
2022/04/16 03:42:28;;;;;;;3.67;2.27;;;8.00;99.90;;;;;;5144067;27;20629;-80
2022/04/16 03:44:56;;;;;;;3.40;3.20;;;8.10;99.90;;;;;;5141394;27;20618;-80
2022/04/16 03:47:22;;;;;;;2.67;2.50;;;7.90;99.90;;;;;;5142994;27;20652;-80
2022/04/16 03:49:49;;;;;;;3.30;3.10;;;8.00;99.90;;;;;;5144145;27;20664;-80
2022/04/16 03:52:16;;;;;;;4.13;2.90;;;8.20;99.90;;;;;;5147001;27;20640;-82
2022/04/16 04:00:13;;;;;;;2.90;2.77;;;8.20;99.90;;;;;;5147582;27;20674;-82
2022/04/16 04:02:40;;;;;;;3.47;3.27;;;8.20;99.90;;;;;;5144993;27;21288;-81
2022/04/16 04:05:08;;;;;;;3.07;2.87;;;7.90;99.90;;;;;;5143647;27;20920;-81
2022/04/16 04:07:35;;;;;;;3.13;2.93;;;8.20;99.90;;;;;;5146359;27;20627;-81
2022/04/16 04:10:03;;;;;;;3.00;2.80;;;8.20;99.90;;;;;;5145242;27;21233;-81
2022/04/16 04:12:31;;;;;;;3.30;3.10;;;7.90;99.90;;;;;;5146704;27;20633;-81
2022/04/16 04:14:58;;;;;;;3.30;3.10;;;8.20;99.90;;;;;;5140087;27;20641;-80
2022/04/16 04:17:25;;;;;;;3.20;2.97;;;8.10;99.90;;;;;;5149124;27;20621;-80
2022/04/16 04:19:51;;;;;;;2.63;2.43;;;8.10;99.90;;;;;;5149384;27;20642;-80
2022/04/16 04:22:18;;;;;;;5.90;3.77;;;8.30;99.90;;;;;;5145586;27;20983;-80
2022/04/16 04:24:46;;;;;;;3.80;3.53;;;8.20;99.90;;;;;;5143897;27;20609;-80
2022/04/16 04:27:14;;;;;;;3.43;3.17;;;8.40;99.90;;;;;;5145729;27;21158;-80
2022/04/16 04:29:41;;;;;;;3.60;3.40;;;8.20;99.90;;;;;;5136898;27;21031;-80
2022/04/16 04:32:10;;;;;;;3.43;3.10;;;8.30;99.90;;;;;;5135282;27;20683;-79
2022/04/16 04:34:37;;;;;;;3.30;3.03;;;7.90;99.90;;;;;;5142031;27;20751;-80
2022/04/16 04:37:04;;;;;;;3.07;2.87;;;7.90;99.90;;;;;;5143777;27;20651;-80
2022/04/16 04:39:31;;;;;;;5.37;3.23;;;8.40;99.90;;;;;;5146755;27;20685;-80
2022/04/16 04:41:58;;;;;;;3.20;3.00;;;8.40;99.90;;;;;;5143780;27;20633;-80
2022/04/16 04:44:26;;;;;;;2.80;2.60;;;8.00;99.90;;;;;;5143903;27;20621;-80
2022/04/16 04:46:53;;;;;;;3.30;3.10;;;8.50;99.90;;;;;;5143974;27;20634;-80
2022/04/16 04:49:19;;;;;;;3.13;2.93;;;8.20;99.90;;;;;;5140092;27;21048;-79
2022/04/16 04:51:46;;;;;;;3.53;3.27;;;8.10;99.90;;;;;;5146037;27;20630;-79
2022/04/16 04:54:13;;;;;;;3.47;3.17;;;8.70;99.90;;;;;;5145875;27;20676;-80
2022/04/16 04:56:40;;;;;;;4.00;3.70;;;8.50;99.90;;;;;;5146513;27;20641;-80
2022/04/16 04:59:07;;;;;;;4.03;3.73;;;8.60;99.90;;;;;;5145057;27;20610;-80
2022/04/16 05:01:35;;;;;;;4.00;3.70;;;8.50;99.90;;;;;;5143779;27;20661;-81
2022/04/16 05:04:01;;;;;;;3.77;3.43;;;8.20;99.90;;;;;;5150978;27;20990;-80
2022/04/16 05:06:28;;;;;;;3.93;3.60;;;8.10;99.90;;;;;;5140057;27;20618;-81
2022/04/16 05:08:55;;;;;;;3.93;3.73;;;8.30;99.90;;;;;;5142774;27;20622;-80
2022/04/16 05:11:22;;;;;;;3.53;3.33;;;8.50;99.90;;;;;;5143317;27;20661;-82
2022/04/16 05:13:49;;;;;;;3.90;3.60;;;8.30;99.90;;;;;;5147796;27;21167;-81
2022/04/16 05:16:16;;;;;;;4.17;3.90;;;8.50;99.90;;;;;;5142943;27;21022;-81
2022/04/16 05:18:44;;;;;;;3.63;3.33;;;8.70;99.90;;;;;;5140022;27;20640;-81
2022/04/16 05:21:11;;;;;;;4.23;3.83;;;8.50;99.90;;;;;;5141390;27;21291;-81
2022/04/16 05:23:39;;;;;;;3.73;3.53;;;8.80;99.90;;;;;;5141317;27;20618;-81
2022/04/16 05:26:07;;;;;;;4.20;3.93;;;8.90;99.90;;;;;;5137859;27;20630;-80
2022/04/16 05:28:34;;;;;;;4.23;3.93;;;8.90;99.90;;;;;;5144748;27;20689;-81
2022/04/16 05:31:03;;;;;;;4.17;3.87;;;8.90;99.90;;;;;;5147137;27;20648;-81
2022/04/16 05:36:15;;;;;;;3.60;3.40;;;9.20;99.90;;;;;;5149344;27;20734;-82
2022/04/16 05:38:42;;;;;;;4.37;4.07;;;9.20;99.90;;;;;;5140140;27;21003;-82
2022/04/16 05:41:09;;;;;;;4.57;4.27;;;9.40;99.90;;;;;;5146904;27;20676;-81
2022/04/16 05:43:35;;;;;;;3.97;3.77;;;9.30;99.90;;;;;;5142610;27;21078;-82
2022/04/16 05:46:02;;;;;;;4.50;4.20;;;9.60;99.90;;;;;;5141939;27;20610;-81
2022/04/16 05:48:29;;;;;;;3.87;3.67;;;9.90;99.90;;;;;;5138872;27;20643;-82
2022/04/16 05:50:57;;;;;;;3.87;3.60;;;9.50;99.90;;;;;;5144682;27;20658;-82
2022/04/16 05:53:25;;;;;;;3.40;3.20;;;9.70;99.90;;;;;;5140643;27;20747;-82
2022/04/16 05:55:54;;;;;;;3.90;3.60;;;9.80;99.90;;;;;;5147775;27;21242;-82
2022/04/16 05:58:21;;;;;;;5.03;3.70;;;10.20;99.90;;;;;;5139614;27;20704;-81
2022/04/16 06:00:48;;;;;;;3.83;3.40;;;9.90;99.90;;;;;;5145197;27;20661;-81
2022/04/16 06:03:15;;;;;;;3.20;3.00;;;10.30;99.90;;;;;;5145807;27;20696;-81
2022/04/16 06:05:42;;;;;;;3.83;3.63;;;10.20;99.90;;;;;;5142315;27;20617;-82
2022/04/16 06:08:09;;;;;;;3.97;3.67;;;10.10;99.90;;;;;;5144712;27;20626;-81
2022/04/16 06:10:37;;;;;;;3.60;3.40;;;10.40;99.90;;;;;;5143822;27;20633;-82
2022/04/16 06:13:05;;;;;;;3.57;3.23;;;10.10;99.90;;;;;;5146567;27;20626;-82
2022/04/16 06:15:32;;;;;;;3.00;2.70;;;10.70;99.90;;;;;;5142242;27;20668;-82
2022/04/16 06:17:59;;;;;;;3.50;3.30;;;10.20;99.90;;;;;;5144180;27;21256;-82
2022/04/16 06:20:26;;;;;;;3.10;2.90;;;10.40;99.90;;;;;;5147503;27;20989;-81
2022/04/16 06:22:53;;;;;;;3.10;2.83;;;10.20;99.90;;;;;;5148767;27;20648;-82
2022/04/16 06:25:20;;;;;;;4.10;3.80;;;10.60;99.90;;;;;;5146047;27;21158;-82
2022/04/16 06:27:48;;;;;;;4.03;3.73;;;10.40;99.90;;;;;;5139454;27;20655;-82
2022/04/16 06:30:15;;;;;;;3.40;3.20;;;11.00;99.90;;;;;;5148042;27;20628;-82
2022/04/16 06:32:42;;;;;;;3.93;3.60;;;10.90;99.90;;;;;;5143366;27;20626;-82
2022/04/16 06:35:12;;;;;;;3.80;3.60;;;10.30;99.90;;;;;;5143894;27;20672;-82
2022/04/16 06:37:41;;;;;;;3.23;3.03;;;10.90;99.90;;;;;;5146261;27;21305;-81
2022/04/16 06:40:09;;;;;;;3.50;3.23;;;10.90;99.90;;;;;;5141647;27;20618;-82
2022/04/16 06:42:36;;;;;;;3.70;3.40;;;11.00;99.90;;;;;;5144073;27;20644;-82
2022/04/16 06:45:07;;;;;;;3.40;3.20;;;11.20;99.90;;;;;;5141360;27;20619;-82
2022/04/16 06:47:34;;;;;;;4.80;3.47;;;11.00;99.90;;;;;;5141438;27;20633;-82
2022/04/16 06:50:01;;;;;;;3.90;3.60;;;10.80;99.90;;;;;;5144842;27;20602;-81
2022/04/16 06:52:28;;;;;;;3.57;3.37;;;10.80;99.90;;;;;;5143514;27;20633;-82
2022/04/16 06:54:57;;;;;;;3.70;3.50;;;10.80;99.90;;;;;;5135727;27;20649;-82
2022/04/16 06:57:24;;;;;;;3.90;3.60;;;10.90;99.90;;;;;;5135285;27;20718;-82
2022/04/16 06:59:50;;;;;;;5.03;4.60;;;11.00;99.90;;;;;;5140321;27;20630;-82
2022/04/16 07:02:19;;;;;;;4.63;4.27;;;11.10;99.90;;;;;;5142807;27;20636;-81
2022/04/16 07:04:46;;;;;;;4.07;3.67;;;11.10;99.90;;;;;;5147489;27;20617;-82
2022/04/16 07:07:13;;;;;;;3.97;3.67;;;11.30;99.90;;;;;;5145064;27;20653;-82
2022/04/16 07:09:40;;;;;;;3.80;3.50;;;11.60;99.90;;;;;;5143203;27;20628;-82
2022/04/16 07:12:09;;;;;;;4.63;4.33;;;11.40;99.90;;;;;;5146092;27;20633;-82
2022/04/16 07:14:37;;;;;;;4.20;3.90;;;11.40;99.90;;;;;;5137121;27;20670;-79
2022/04/16 07:17:05;;;;;;;4.23;3.93;;;11.50;99.90;;;;;;5151580;27;20653;-80
2022/04/16 07:19:34;;;;;;;4.93;4.53;;;11.50;99.90;;;;;;5150435;27;21183;-80
2022/04/16 07:22:01;;;;;;;4.30;4.00;;;11.20;99.90;;;;;;5151661;27;20981;-80
2022/04/16 07:24:28;;;;;;;4.50;4.10;;;11.60;99.90;;;;;;5147268;27;20647;-80
2022/04/16 07:26:56;;;;;;;5.00;4.50;;;11.30;99.90;;;;;;5144404;27;21072;-80
2022/04/16 07:29:23;;;;;;;4.90;4.50;;;11.70;99.90;;;;;;5146507;27;20645;-81
2022/04/16 07:31:50;;;;;;;4.50;3.80;;;11.50;99.90;;;;;;5150498;27;20643;-81
2022/04/16 07:34:17;;;;;;;4.37;4.07;;;11.60;99.90;;;;;;5151065;27;20730;-81
2022/04/16 07:36:46;;;;;;;4.70;4.27;;;11.80;99.90;;;;;;5151854;27;21062;-81
2022/04/16 07:39:15;;;;;;;4.70;4.33;;;11.80;99.90;;;;;;5146176;27;20625;-81
2022/04/16 07:41:42;;;;;;;5.43;5.03;;;11.70;99.90;;;;;;5146461;27;20625;-81
2022/04/16 07:44:09;;;;;;;5.60;5.20;;;12.10;99.90;;;;;;5144716;27;20644;-81
2022/04/16 07:46:37;;;;;;;5.10;4.70;;;12.00;99.90;;;;;;5155945;27;20921;-80
2022/04/16 07:49:04;;;;;;;4.77;4.40;;;12.10;99.90;;;;;;5144583;27;20948;-80
2022/04/16 07:51:31;;;;;;;4.37;4.07;;;12.10;99.90;;;;;;5148172;27;20627;-81
2022/04/16 07:54:00;;;;;;;4.80;4.40;;;12.10;99.90;;;;;;5141343;27;20622;-81
2022/04/16 07:56:27;;;;;;;6.37;5.33;;;12.20;99.90;;;;;;5147259;27;20657;-81
2022/04/16 07:58:55;;;;;;;5.13;4.73;;;12.30;99.90;;;;;;5149672;27;20628;-81
2022/04/16 08:01:22;;;;;;;5.50;5.00;;;12.20;99.90;;;;;;5150612;27;20945;-81
2022/04/16 08:03:49;;;;;;;4.70;4.30;;;12.20;99.90;;;;;;5147630;27;20641;-81
2022/04/16 08:06:16;;;;;;;5.47;5.03;;;12.10;99.90;;;;;;5147484;27;20813;-81
2022/04/16 08:08:43;;;;;;;5.67;5.17;;;12.40;99.90;;;;;;5150555;27;20999;-81
2022/04/16 08:11:11;;;;;;;5.20;4.70;;;12.40;99.90;;;;;;5150399;27;21001;-81
2022/04/16 08:13:38;;;;;;;5.07;4.67;;;12.50;99.90;;;;;;5150580;27;20621;-81
2022/04/16 08:16:06;;;;;;;5.40;4.90;;;12.60;99.90;;;;;;5147716;27;20657;-82
2022/04/16 08:18:33;;;;;;;5.33;4.83;;;12.60;99.90;;;;;;5145152;27;20650;-81
2022/04/16 08:21:00;;;;;;;5.50;5.00;;;12.60;99.90;;;;;;5151915;27;20625;-81
2022/04/16 08:23:27;;;;;;;5.57;5.07;;;12.70;99.90;;;;;;5150102;27;20623;-80
2022/04/16 08:25:54;;;;;;;5.43;5.03;;;12.80;99.90;;;;;;5142193;27;20625;-80
2022/04/16 08:28:22;;;;;;;5.20;4.80;;;12.90;99.90;;;;;;5145859;27;20657;-81
2022/04/16 08:30:50;;;;;;;5.70;5.20;;;13.00;99.90;;;;;;5147137;27;20623;-81
2022/04/16 08:33:17;;;;;;;5.70;5.20;;;13.00;99.90;;;;;;5142359;27;20637;-81
2022/04/16 08:35:44;;;;;;;5.37;4.97;;;13.10;99.90;;;;;;5147723;27;20661;-81
2022/04/16 08:38:12;;;;;;;5.77;5.20;;;13.00;99.90;;;;;;5142714;27;21286;-81
2022/04/16 08:40:39;;;;;;;6.00;5.50;;;13.20;99.90;;;;;;5143964;27;20613;-82
2022/04/16 08:43:07;;;;;;;5.40;4.90;;;13.20;99.90;;;;;;5142319;27;20622;-82
2022/04/16 08:45:38;;;;;;;6.60;5.90;;;13.30;99.90;;;;;;5143318;27;20629;-81
2022/04/16 08:48:05;;;;;;;5.73;5.27;;;13.40;99.90;;;;;;5145405;27;20649;-84
2022/04/16 08:50:33;;;;;;;5.60;5.20;;;13.50;99.90;;;;;;5143079;27;20637;-81
2022/04/16 08:53:00;;;;;;;5.83;5.30;;;13.50;99.90;;;;;;5136635;27;20626;-81
2022/04/16 08:55:28;;;;;;;5.43;5.03;;;13.50;99.90;;;;;;5147172;27;21113;-81
2022/04/16 08:57:56;;;;;;;4.93;4.53;;;13.60;99.90;;;;;;5144242;27;20770;-80
2022/04/16 09:00:23;;;;;;;5.50;5.10;;;13.60;99.90;;;;;;5145528;27;20626;-81
2022/04/16 09:02:56;;;;;;;6.10;5.50;;;13.60;99.90;;;;;;5141600;27;20656;-81
2022/04/16 09:05:24;;;;;;;5.83;5.43;;;13.50;99.90;;;;;;5143944;27;20633;-81
2022/04/16 09:07:52;;;;;;;5.83;5.33;;;13.40;99.90;;;;;;5148887;27;20657;-80
2022/04/16 09:10:20;;;;;;;6.87;6.37;;;13.40;99.90;;;;;;5146301;27;20657;-81
2022/04/16 09:12:51;;;;;;;7.30;6.60;;;13.40;99.90;;;;;;5147711;27;20636;-81
2022/04/16 09:15:17;;;;;;;8.77;7.87;;;13.40;99.90;;;;;;5142627;27;21030;-81
2022/04/16 09:17:44;;;;;;;6.67;6.17;;;13.50;99.90;;;;;;5146209;27;20649;-81
2022/04/16 09:20:15;;;;;;;6.77;6.27;;;13.50;99.90;;;;;;5146487;27;20673;-81
2022/04/16 09:22:49;;;;;;;6.80;6.20;;;13.50;99.90;;;;;;5147886;27;20633;-81
2022/04/16 09:25:18;;;;;;;6.30;5.70;;;13.50;99.90;;;;;;5143123;27;20630;-81
2022/04/16 09:27:47;;;;;;;7.10;6.50;;;13.50;99.90;;;;;;5145958;27;20663;-81
2022/04/16 09:30:14;;;;;;;7.47;6.77;;;13.60;99.90;;;;;;5148056;27;21032;-81
2022/04/16 09:32:45;;;;;;;6.60;5.90;;;13.50;99.90;;;;;;5142978;27;20645;-82
2022/04/16 09:35:35;;;;;;;6.70;6.10;;;13.50;99.90;;;;;;5145104;27;20622;-83
2022/04/16 09:38:03;;;;;;;6.90;6.30;;;13.50;99.90;;;;;;5137603;27;20653;-83
2022/04/16 09:40:31;;;;;;;7.00;6.50;;;13.50;99.90;;;;;;5142532;27;20632;-83
2022/04/16 09:43:01;;;;;;;7.23;6.50;;;13.60;99.90;;;;;;5144922;27;20629;-83
2022/04/16 09:45:27;;;;;;;6.40;5.80;;;13.70;99.90;;;;;;5143008;27;20624;-83
2022/04/16 09:47:54;;;;;;;6.70;6.10;;;13.70;99.90;;;;;;5143399;27;20652;-80
2022/04/16 09:50:22;;;;;;;6.40;6.00;;;13.90;99.90;;;;;;5145100;27;20621;-83
2022/04/16 09:52:53;;;;;;;5.90;5.50;;;13.90;99.90;;;;;;5143097;27;20717;-82
2022/04/16 09:55:24;;;;;;;6.63;6.10;;;14.10;99.30;;;;;;5142854;27;20622;-84
2022/04/16 09:57:54;;;;;;;7.17;6.57;;;14.20;99.10;;;;;;5142195;27;20645;-81
2022/04/16 10:00:21;;;;;;;6.53;5.93;;;14.40;99.40;;;;;;5146740;27;20951;-81
2022/04/16 10:02:48;;;;;;;6.20;5.70;;;14.60;98.20;;;;;;5149488;27;20633;-82
2022/04/16 10:05:15;;;;;;;6.23;5.63;;;14.70;97.90;;;;;;5147788;27;20629;-82
2022/04/16 10:07:44;;;;;;;7.47;5.90;;;14.90;98.00;;;;;;5146152;27;20966;-83
2022/04/16 10:10:19;;;;;;;6.90;6.30;;;15.00;97.30;;;;;;5146151;27;20617;-81
2022/04/16 10:13:01;;;;;;;6.13;5.63;;;15.20;97.10;;;;;;5145844;27;20625;-83
2022/04/16 10:15:36;;;;;;;6.97;6.40;;;15.30;95.90;;;;;;5144034;27;20621;-81
2022/04/16 10:18:03;;;;;;;6.60;6.00;;;15.40;96.10;;;;;;5138489;27;20640;-81
2022/04/16 10:20:30;;;;;;;7.70;7.03;;;15.30;95.40;;;;;;5142538;27;20621;-81
2022/04/16 10:23:01;;;;;;;7.60;6.90;;;15.30;95.60;;;;;;5141923;27;21073;-81
2022/04/16 10:25:32;;;;;;;8.03;7.40;;;15.20;95.50;;;;;;5145700;27;20708;-81
2022/04/16 10:28:05;;;;;;;7.10;6.60;;;15.20;95.20;;;;;;5141222;27;20719;-81
2022/04/16 10:30:39;;;;;;;6.33;5.83;;;15.20;95.40;;;;;;5144330;27;20643;-81
2022/04/16 10:33:19;;;;;;;6.47;6.00;;;15.10;95.30;;;;;;5139082;27;20622;-81
2022/04/16 10:35:54;;;;;;;7.03;6.43;;;15.00;95.00;;;;;;5145263;27;20633;-82
2022/04/16 10:38:25;;;;;;;6.43;5.93;;;15.00;95.00;;;;;;5145577;27;20651;-82
2022/04/16 10:40:57;;;;;;;6.07;5.57;;;15.10;94.80;;;;;;5142220;27;21009;-82
2022/04/16 10:43:29;;;;;;;6.20;5.80;;;15.10;94.60;;;;;;5142904;27;20654;-82
2022/04/16 10:46:03;;;;;;;6.40;5.90;;;15.10;94.60;;;;;;5142524;27;21091;-82
2022/04/16 10:48:32;;;;;;;6.97;6.27;;;15.20;94.70;;;;;;5137581;27;20649;-82
2022/04/16 10:51:00;;;;;;;5.53;5.13;;;15.30;94.80;;;;;;5140721;27;20753;-82
2022/04/16 10:53:32;;;;;;;6.37;5.87;;;15.40;94.40;;;;;;5145164;27;20628;-82
2022/04/16 10:56:10;;;;;;;6.80;6.27;;;15.50;94.00;;;;;;5146625;27;20645;-81
2022/04/16 10:58:37;;;;;;;6.50;6.00;;;15.70;93.90;;;;;;5141152;27;20649;-82
2022/04/16 11:01:08;;;;;;;6.70;6.10;;;15.70;93.60;;;;;;5140514;27;21157;-82
2022/04/16 11:03:47;;;;;;;5.97;5.47;;;15.80;92.90;;;;;;5144135;27;20991;-82
2022/04/16 11:06:14;;;;;;;6.00;5.50;;;15.90;92.80;;;;;;5140436;27;20658;-82
2022/04/16 11:08:41;;;;;;;5.93;5.43;;;15.90;92.10;;;;;;5145362;27;20653;-81
2022/04/16 11:11:10;;;;;;;5.33;4.63;;;15.90;92.50;;;;;;5142235;27;20622;-82
2022/04/16 11:13:39;;;;;;;4.40;4.00;;;15.90;91.90;;;;;;5143304;27;20657;-82
2022/04/16 11:16:06;;;;;;;4.93;4.53;;;16.10;91.50;;;;;;5142874;27;20628;-83
2022/04/16 11:18:41;;;;;;;4.20;3.90;;;16.10;91.10;;;;;;5140146;27;20647;-81
2022/04/16 11:21:09;;;;;;;5.73;5.23;;;16.00;91.50;;;;;;5147839;27;20628;-82
2022/04/16 11:23:44;;;;;;;6.47;5.97;;;16.20;91.10;;;;;;5143272;27;20618;-81
2022/04/16 11:34:29;;;;;;;8.00;7.20;;;16.00;90.60;;;;;;5139956;27;20601;-83
2022/04/16 11:36:56;;;;;;;8.80;8.00;;;15.90;90.50;;;;;;5142728;27;20673;-82
2022/04/16 11:39:24;;;;;;;8.73;8.03;;;16.00;90.70;;;;;;5141302;27;20637;-82
2022/04/16 11:41:53;;;;;;;8.93;8.23;;;16.20;91.30;;;;;;5142591;27;20627;-82
2022/04/16 11:44:32;;;;;;;11.00;10.00;;;16.30;90.60;;;;;;5145462;27;20626;-82
2022/04/16 11:47:00;;;;;;;7.10;6.37;;;16.40;90.20;;;;;;5138525;27;20641;-82
2022/04/16 11:49:28;;;;;;;6.43;5.83;;;16.40;90.10;;;;;;5139002;27;21121;-83
2022/04/16 11:51:54;;;;;;;9.10;8.23;;;16.40;90.20;;;;;;5137327;27;20628;-83
2022/04/16 11:54:28;;;;;;;10.53;9.53;;;16.50;88.90;;;;;;5141095;27;20625;-82
2022/04/16 11:56:56;;;;;;;7.80;7.10;;;16.50;88.80;;;;;;5137952;27;20717;-82
2022/04/16 11:59:24;;;;;;;10.90;9.80;;;16.70;88.80;;;;;;5138498;27;21206;-83
2022/04/16 12:01:59;;;;;;;8.20;7.50;;;16.80;88.00;;;;;;5128763;27;21016;-83
2022/04/16 12:04:40;;;;;;;5.20;4.77;;;17.10;86.70;;;;;;5142446;27;20624;-82
2022/04/16 12:07:11;;;;;;;4.77;4.37;;;17.30;86.40;;;;;;5144541;27;20637;-82
2022/04/16 12:09:43;;;;;;;5.90;5.30;;;17.50;85.90;;;;;;5142118;27;20626;-83
2022/04/16 12:12:14;;;;;;;6.03;5.43;;;17.70;84.20;;;;;;5144857;27;20621;-82
2022/04/16 12:14:46;;;;;;;6.13;5.63;;;17.80;83.70;;;;;;5143878;27;20629;-82
2022/04/16 12:17:12;;;;;;;6.97;6.37;;;17.80;84.30;;;;;;5141471;27;20719;-82
2022/04/16 12:19:42;;;;;;;6.73;6.17;;;17.90;83.30;;;;;;5145529;27;20666;-82
2022/04/16 12:22:16;;;;;;;6.90;6.20;;;17.70;82.60;;;;;;5139753;27;20622;-83
2022/04/16 12:24:43;;;;;;;10.47;9.57;;;17.80;83.60;;;;;;5147487;27;20639;-84
2022/04/16 12:27:11;;;;;;;7.67;6.97;;;18.00;82.30;;;;;;5139570;27;20653;-82
2022/04/16 12:29:48;;;;;;;7.90;7.20;;;18.40;81.00;;;;;;5146200;27;20633;-82
2022/04/16 12:32:25;;;;;;;5.70;5.30;;;18.50;79.70;;;;;;5140392;27;20613;-82
2022/04/16 12:34:52;;;;;;;7.07;6.47;;;18.60;80.00;;;;;;5140264;27;20621;-82
2022/04/16 12:37:19;;;;;;;5.70;5.20;;;18.70;79.50;;;;;;5141695;27;21322;-82
2022/04/16 12:39:45;;;;;;;6.63;6.13;;;18.60;78.70;;;;;;5141050;27;20625;-82
2022/04/16 12:42:13;;;;;;;6.50;5.90;;;18.60;79.30;;;;;;5145035;27;21078;-82
2022/04/16 12:44:40;;;;;;;5.70;5.20;;;18.40;79.20;;;;;;5143177;27;21189;-82
2022/04/16 12:47:07;;;;;;;7.43;5.20;;;18.30;78.50;;;;;;5144103;27;20637;-82
2022/04/16 12:49:34;;;;;;;6.00;5.37;;;18.40;78.80;;;;;;5142065;27;20714;-82
2022/04/16 12:52:01;;;;;;;5.60;5.10;;;18.80;78.70;;;;;;5143837;27;20648;-82
2022/04/16 12:54:28;;;;;;;6.10;5.53;;;19.40;77.40;;;;;;5143015;27;20629;-82
2022/04/16 12:56:55;;;;;;;5.60;4.57;;;19.70;75.20;;;;;;5142872;27;20673;-83
2022/04/16 12:59:23;;;;;;;5.43;4.93;;;19.80;75.00;;;;;;5138835;27;20626;-83
2022/04/16 13:01:49;;;;;;;4.67;4.27;;;20.40;72.90;;;;;;5142994;27;20644;-82
2022/04/16 13:04:16;;;;;;;5.53;5.03;;;21.00;72.30;;;;;;5140368;27;20986;-83
2022/04/16 13:06:44;;;;;;;5.40;4.90;;;21.40;67.80;;;;;;5143098;27;21052;-82
2022/04/16 13:09:11;;;;;;;5.10;4.70;;;21.80;67.00;;;;;;5139509;27;20796;-81
2022/04/16 13:11:38;;;;;;;4.47;4.17;;;22.30;64.20;;;;;;5139948;27;20630;-84
2022/04/16 13:14:05;;;;;;;5.63;5.23;;;22.20;63.30;;;;;;5142589;27;20634;-81
2022/04/16 13:16:33;;;;;;;4.57;4.17;;;22.20;62.20;;;;;;5145618;27;20630;-82